createdAt,value
2022-11-23T00:01:34.018Z,68.34
2022-11-23T00:04:11.967Z,68.44
2022-11-23T00:06:39.971Z,68.48
2022-11-23T00:09:08.272Z,68.59
2022-11-23T00:11:36.274Z,68.64
2022-11-23T00:14:04.324Z,68.65
2022-11-23T00:16:32.365Z,68.65
2022-11-23T00:19:01.296Z,68.55
2022-11-23T00:21:31.861Z,68.58
2022-11-23T00:23:59.562Z,68.53
2022-11-23T00:26:27.794Z,68.51
2022-11-23T00:28:55.354Z,68.43
2022-11-23T00:31:25.257Z,68.39
2022-11-23T00:33:55.217Z,68.17
2022-11-23T00:36:25.200Z,68.13
2022-11-23T00:38:55.112Z,68.33
2022-11-23T00:41:25.836Z,68.30
2022-11-23T00:43:53.718Z,68.29
2022-11-23T00:46:25.492Z,68.29
2022-11-23T00:48:56.175Z,68.36
2022-11-23T00:51:28.094Z,68.32
2022-11-23T00:53:55.768Z,68.50
2022-11-23T00:56:25.130Z,68.50
2022-11-23T00:58:54.632Z,68.51
2022-11-23T01:01:26.547Z,68.46
2022-11-23T01:03:57.796Z,68.27
2022-11-23T01:06:31.807Z,68.24
2022-11-23T01:09:07.899Z,68.15
2022-11-23T01:11:35.903Z,68.19
2022-11-23T01:14:04.309Z,68.30
2022-11-23T01:16:37.251Z,68.33
2022-11-23T01:19:08.749Z,68.30
2022-11-23T01:21:36.892Z,68.23
2022-11-23T01:24:17.662Z,68.26
2022-11-23T01:26:48.729Z,68.36
2022-11-23T01:29:17.760Z,68.43
2022-11-23T01:31:46.941Z,68.58
2022-11-23T01:34:15.862Z,68.68
2022-11-23T01:36:45.257Z,68.80
2022-11-23T01:39:14.716Z,68.82
2022-11-23T01:41:44.970Z,68.88
2022-11-23T01:44:29.694Z,69.20
2022-11-23T01:47:01.072Z,69.40
2022-11-23T01:49:36.535Z,69.52
2022-11-23T01:52:13.048Z,69.60
2022-11-23T01:54:51.392Z,69.46
2022-11-23T01:57:26.151Z,69.33
2022-11-23T01:59:55.331Z,69.13
2022-11-23T02:02:22.869Z,68.79
2022-11-23T02:04:51.709Z,68.52
2022-11-23T02:07:20.541Z,68.31
2022-11-23T02:09:48.988Z,68.06
2022-11-23T02:12:16.766Z,67.90
2022-11-23T02:14:45.553Z,67.79
2022-11-23T02:17:13.635Z,67.79
2022-11-23T02:20:09.853Z,67.66
2022-11-23T02:23:23.905Z,67.67
2022-11-23T02:26:15.605Z,67.57
2022-11-23T02:28:54.422Z,67.59
2022-11-23T02:31:23.176Z,67.53
2022-11-23T02:33:52.634Z,67.32
2022-11-23T02:36:50.028Z,67.45
2022-11-23T02:39:22.633Z,67.42
2022-11-23T02:41:53.005Z,67.18
2022-11-23T02:44:31.817Z,67.23
2022-11-23T02:46:59.851Z,67.25
2022-11-23T02:49:27.977Z,67.32
2022-11-23T02:51:55.633Z,67.43
2022-11-23T02:54:25.204Z,67.51
2022-11-23T02:56:52.838Z,67.73
2022-11-23T02:59:20.732Z,67.77
2022-11-23T03:01:50.311Z,68.00
2022-11-23T03:04:19.823Z,68.09
2022-11-23T03:06:47.002Z,67.96
2022-11-23T03:09:14.551Z,68.01
2022-11-23T03:11:42.568Z,68.14
2022-11-23T03:14:10.960Z,68.11
2022-11-23T03:16:40.251Z,68.23
2022-11-23T03:19:08.357Z,68.13
2022-11-23T03:21:36.814Z,68.21
2022-11-23T03:24:06.783Z,68.09
2022-11-23T03:26:35.226Z,68.13
2022-11-23T03:29:05.139Z,68.20
2022-11-23T03:31:32.916Z,68.18
2022-11-23T03:34:01.315Z,68.22
2022-11-23T03:36:30.482Z,68.16
2022-11-23T03:38:58.668Z,68.14
2022-11-23T03:41:30.809Z,68.14
2022-11-23T03:44:00.133Z,68.00
2022-11-23T03:46:27.958Z,68.00
2022-11-23T03:48:55.658Z,67.89
2022-11-23T03:51:22.985Z,68.01
2022-11-23T03:53:50.632Z,68.09
2022-11-23T03:56:19.734Z,68.43
2022-11-23T03:58:47.269Z,68.62
2022-11-23T04:01:15.092Z,68.90
2022-11-23T04:03:44.452Z,68.76
2022-11-23T04:06:14.013Z,68.74
2022-11-23T04:08:50.417Z,68.65
2022-11-23T04:11:19.986Z,68.81
2022-11-23T04:13:49.023Z,68.78
2022-11-23T04:16:16.841Z,68.46
2022-11-23T04:18:44.416Z,68.15
2022-11-23T04:21:12.297Z,68.04
2022-11-23T04:23:40.159Z,67.69
2022-11-23T04:26:09.118Z,67.52
2022-11-23T04:28:38.512Z,67.06
2022-11-23T04:31:06.618Z,67.13
2022-11-23T04:33:36.167Z,67.06
2022-11-23T04:36:05.435Z,67.00
2022-11-23T04:38:33.114Z,66.78
2022-11-23T04:41:00.973Z,66.76
2022-11-23T04:43:28.666Z,66.69
2022-11-23T04:45:57.333Z,66.60
2022-11-23T04:48:26.790Z,66.56
2022-11-23T04:50:55.899Z,66.60
2022-11-23T04:53:28.113Z,66.73
2022-11-23T04:55:56.358Z,66.58
2022-11-23T04:58:24.192Z,66.67
2022-11-23T05:00:54.214Z,66.69
2022-11-23T05:03:21.900Z,66.73
2022-11-23T05:05:49.882Z,66.69
2022-11-23T05:08:17.606Z,66.74
2022-11-23T05:10:47.486Z,66.90
2022-11-23T05:13:15.333Z,67.02
2022-11-23T05:15:43.580Z,67.07
2022-11-23T05:18:13.464Z,67.07
2022-11-23T05:20:41.524Z,67.21
2022-11-23T05:23:11.001Z,67.31
2022-11-23T05:25:40.651Z,67.48
2022-11-23T05:28:39.093Z,67.66
2022-11-23T05:30:49.027Z,67.65
2022-11-23T05:33:16.943Z,67.96
2022-11-23T05:35:44.743Z,67.69
2022-11-23T05:38:12.519Z,67.70
2022-11-23T05:40:40.250Z,67.88
2022-11-23T05:43:09.090Z,67.98
2022-11-23T05:45:36.598Z,68.14
2022-11-23T05:48:04.803Z,68.17
2022-11-23T05:50:34.555Z,68.22
2022-11-23T05:53:19.333Z,68.25
2022-11-23T05:55:49.004Z,68.39
2022-11-23T05:58:18.793Z,68.55
2022-11-23T06:00:46.395Z,68.71
2022-11-23T06:03:15.231Z,68.95
2022-11-23T06:05:43.177Z,69.10
2022-11-23T06:08:10.731Z,69.41
2022-11-23T06:10:39.710Z,69.61
2022-11-23T06:13:07.370Z,69.89
2022-11-23T06:15:35.865Z,69.90
2022-11-23T06:18:04.056Z,70.04
2022-11-23T06:20:36.319Z,69.92
2022-11-23T06:23:04.144Z,69.35
2022-11-23T06:25:31.724Z,69.12
2022-11-23T06:28:01.401Z,69.06
2022-11-23T06:30:31.190Z,69.09
2022-11-23T06:33:04.198Z,68.77
2022-11-23T06:35:33.779Z,68.83
2022-11-23T06:38:01.497Z,68.82
2022-11-23T06:40:29.509Z,68.78
2022-11-23T06:43:00.388Z,68.78
2022-11-23T06:45:39.170Z,68.77
2022-11-23T06:48:08.503Z,68.80
2022-11-23T06:50:37.913Z,68.92
2022-11-23T06:53:05.604Z,68.76
2022-11-23T06:55:35.193Z,68.67
2022-11-23T06:58:04.028Z,68.65
2022-11-23T07:00:32.980Z,68.68
2022-11-23T07:03:01.765Z,68.73
2022-11-23T07:05:31.436Z,68.89
2022-11-23T07:07:59.185Z,68.91
2022-11-23T07:10:27.307Z,69.02
2022-11-23T07:13:06.551Z,69.08
2022-11-23T07:15:36.560Z,69.11
2022-11-23T07:18:05.648Z,69.37
2022-11-23T07:20:34.122Z,69.30
2022-11-23T07:23:06.576Z,69.50
2022-11-23T07:25:37.804Z,69.59
2022-11-23T07:28:07.552Z,69.79
2022-11-23T07:30:36.163Z,69.98
2022-11-23T07:33:08.029Z,70.24
2022-11-23T07:35:41.360Z,70.35
2022-11-23T07:38:09.125Z,70.08
2022-11-23T07:40:38.559Z,70.02
2022-11-23T07:43:07.653Z,70.25
2022-11-23T07:45:36.837Z,70.09
2022-11-23T07:48:08.908Z,70.14
2022-11-23T07:50:39.712Z,69.98
2022-11-23T07:53:08.085Z,69.71
2022-11-23T07:55:35.368Z,69.73
2022-11-23T07:58:02.967Z,69.70
2022-11-23T08:00:31.112Z,69.67
2022-11-23T08:03:26.303Z,69.57
2022-11-23T08:05:28.734Z,68.97
2022-11-23T08:08:01.359Z,68.82
2022-11-23T08:10:31.191Z,68.92
2022-11-23T08:13:00.449Z,68.88
2022-11-23T08:15:28.242Z,68.85
2022-11-23T08:17:59.097Z,68.85
2022-11-23T08:20:29.491Z,68.80
2022-11-23T08:22:57.514Z,68.70
2022-11-23T08:25:27.327Z,68.85
2022-11-23T08:27:58.461Z,68.85
2022-11-23T08:30:27.660Z,68.87
2022-11-23T08:32:55.843Z,68.83
2022-11-23T08:35:24.286Z,68.96
2022-11-23T08:37:52.203Z,69.06
2022-11-23T08:40:25.116Z,69.56
2022-11-23T08:42:49.673Z,69.92
2022-11-23T08:45:19.125Z,69.84
2022-11-23T08:47:46.527Z,69.66
2022-11-23T08:50:14.570Z,69.62
2022-11-23T08:52:42.505Z,69.60
2022-11-23T08:55:10.309Z,69.79
2022-11-23T08:57:38.422Z,70.15
2022-11-23T09:00:08.272Z,70.54
2022-11-23T09:02:35.993Z,70.87
2022-11-23T09:05:06.141Z,70.99
2022-11-23T09:07:34.007Z,71.34
2022-11-23T09:10:01.817Z,71.47
2022-11-23T09:12:29.543Z,71.59
2022-11-23T09:14:57.097Z,71.51
2022-11-23T09:17:24.487Z,71.33
2022-11-23T09:19:52.071Z,70.94
2022-11-23T09:22:19.781Z,70.75
2022-11-23T09:24:47.573Z,70.40
2022-11-23T09:27:15.222Z,70.49
2022-11-23T09:29:43.180Z,70.49
2022-11-23T09:32:11.072Z,70.29
2022-11-23T09:34:38.529Z,70.00
2022-11-23T09:37:06.071Z,70.11
2022-11-23T09:39:34.030Z,70.20
2022-11-23T09:42:09.500Z,70.35
2022-11-23T09:45:10.374Z,70.52
2022-11-23T09:48:00.408Z,70.48
2022-11-23T09:50:36.166Z,70.71
2022-11-23T09:53:09.279Z,70.90
2022-11-23T09:55:47.230Z,71.17
2022-11-23T09:58:24.857Z,71.30
2022-11-23T10:01:07.124Z,71.39
2022-11-23T10:03:43.934Z,71.51
2022-11-23T10:06:28.023Z,71.70
2022-11-23T10:09:18.702Z,71.80
2022-11-23T10:12:18.870Z,72.00
2022-11-23T10:15:13.614Z,72.32
2022-11-23T10:18:10.468Z,72.25
2022-11-23T10:21:03.222Z,72.29
2022-11-23T10:23:56.860Z,71.97
2022-11-23T10:26:36.045Z,71.70
2022-11-23T10:29:14.111Z,71.46
2022-11-23T10:31:46.633Z,70.98
2022-11-23T10:34:19.693Z,70.85
2022-11-23T10:36:47.507Z,70.75
2022-11-23T10:39:25.898Z,70.54
2022-11-23T10:42:01.668Z,70.68
2022-11-23T10:44:37.930Z,70.69
2022-11-23T10:47:05.862Z,70.62
2022-11-23T10:49:35.503Z,70.72
2022-11-23T10:52:08.232Z,70.80
2022-11-23T10:54:46.770Z,70.71
2022-11-23T10:57:30.708Z,70.92
2022-11-23T11:00:12.761Z,71.05
2022-11-23T11:02:43.771Z,71.04
2022-11-23T11:06:09.382Z,71.20
2022-11-23T11:08:18.587Z,71.25
2022-11-23T11:10:59.206Z,71.49
2022-11-23T11:13:34.902Z,71.60
2022-11-23T11:16:06.736Z,71.58
2022-11-23T11:18:37.814Z,71.68
2022-11-23T11:21:22.820Z,71.73
2022-11-23T11:24:04.307Z,71.71
2022-11-23T11:26:35.419Z,71.67
2022-11-23T11:29:06.299Z,71.76
2022-11-23T11:31:54.550Z,71.96
2022-11-23T11:34:30.462Z,72.22
2022-11-23T11:37:12.028Z,72.44
2022-11-23T11:39:55.840Z,72.62
2022-11-23T11:42:56.813Z,72.60
2022-11-23T11:45:35.295Z,72.68
2022-11-23T11:48:38.961Z,72.58
2022-11-23T11:51:23.460Z,72.21
2022-11-23T11:53:59.301Z,72.00
2022-11-23T11:56:52.784Z,71.88
2022-11-23T11:59:43.003Z,71.59
2022-11-23T12:02:39.048Z,71.27
2022-11-23T12:05:17.919Z,71.13
2022-11-23T12:08:13.659Z,70.99
2022-11-23T12:10:58.733Z,70.96
2022-11-23T12:13:31.723Z,70.96
2022-11-23T12:16:45.900Z,70.90
2022-11-23T12:19:26.352Z,71.00
2022-11-23T12:22:23.181Z,71.46
2022-11-23T12:25:13.784Z,71.43
2022-11-23T12:28:19.110Z,71.55
2022-11-23T12:31:16.016Z,71.69
2022-11-23T12:34:04.266Z,71.82
2022-11-23T12:36:46.512Z,71.98
2022-11-23T12:39:54.910Z,72.06
2022-11-23T12:42:54.453Z,72.25
2022-11-23T12:45:42.442Z,72.45
2022-11-23T12:48:41.290Z,72.68
2022-11-23T12:51:23.053Z,72.77
2022-11-23T12:54:34.530Z,73.15
2022-11-23T12:57:29.735Z,73.30
2022-11-23T13:00:08.594Z,73.51
2022-11-23T13:03:00.046Z,73.93
2022-11-23T13:05:54.606Z,74.02
2022-11-23T13:08:39.489Z,74.11
2022-11-23T13:11:34.058Z,74.21
2022-11-23T13:14:24.111Z,73.98
2022-11-23T13:17:16.127Z,73.55
2022-11-23T13:19:58.352Z,73.28
2022-11-23T13:22:27.366Z,73.05
2022-11-23T13:25:09.922Z,72.83
2022-11-23T13:27:51.721Z,72.75
2022-11-23T13:31:07.184Z,72.50
2022-11-23T13:33:27.157Z,72.39
2022-11-23T13:36:01.046Z,72.12
2022-11-23T13:38:36.945Z,72.12
2022-11-23T13:41:36.014Z,72.21
2022-11-23T13:44:27.728Z,72.18
2022-11-23T13:47:15.894Z,72.18
2022-11-23T13:49:49.565Z,72.19
2022-11-23T13:52:23.250Z,72.20
2022-11-23T13:55:11.501Z,72.36
2022-11-23T13:57:42.242Z,72.28
2022-11-23T14:00:50.063Z,72.17
2022-11-23T14:03:52.537Z,72.10
2022-11-23T14:06:50.758Z,72.04
2022-11-23T14:09:49.647Z,71.82
2022-11-23T14:12:23.368Z,71.89
2022-11-23T14:15:17.680Z,72.15
2022-11-23T14:18:22.808Z,72.32
2022-11-23T14:21:11.389Z,72.50
2022-11-23T14:24:02.734Z,72.49
2022-11-23T14:26:50.763Z,72.72
2022-11-23T14:30:08.588Z,72.57
2022-11-23T14:33:03.519Z,72.45
2022-11-23T14:35:42.043Z,72.17
2022-11-23T14:38:32.007Z,71.99
2022-11-23T14:41:10.348Z,71.72
2022-11-23T14:43:41.796Z,71.61
2022-11-23T14:46:18.496Z,71.49
2022-11-23T14:48:48.445Z,71.37
2022-11-23T14:51:23.164Z,71.49
2022-11-23T14:53:55.021Z,71.50
2022-11-23T14:56:47.101Z,71.52
2022-11-23T14:59:29.086Z,71.51
2022-11-23T15:02:00.886Z,71.53
2022-11-23T15:04:34.101Z,71.59
2022-11-23T15:07:07.461Z,71.65
2022-11-23T15:10:18.901Z,71.64
2022-11-23T15:12:48.982Z,71.63
2022-11-23T15:15:23.620Z,71.61
2022-11-23T15:17:55.897Z,71.73
2022-11-23T15:20:28.928Z,71.77
2022-11-23T15:22:56.511Z,71.79
2022-11-23T15:25:24.248Z,71.86
2022-11-23T15:27:52.421Z,71.95
2022-11-23T15:30:28.326Z,72.07
2022-11-23T15:33:04.125Z,72.15
2022-11-23T15:35:35.173Z,72.24
2022-11-23T15:38:10.179Z,72.31
2022-11-23T15:40:42.385Z,72.44
2022-11-23T15:43:18.689Z,72.64
2022-11-23T15:45:51.620Z,72.78
2022-11-23T15:48:32.899Z,73.07
2022-11-23T15:51:08.105Z,73.18
2022-11-23T15:53:51.343Z,73.32
2022-11-23T15:56:30.575Z,73.38
2022-11-23T15:59:03.105Z,73.44
2022-11-23T16:01:31.495Z,73.14
2022-11-23T16:04:06.330Z,73.04
2022-11-23T16:06:40.603Z,72.83
2022-11-23T16:09:55.482Z,72.52
2022-11-23T16:12:31.163Z,72.27
2022-11-23T16:15:31.872Z,72.03
2022-11-23T16:18:01.281Z,71.90
2022-11-23T16:20:30.131Z,71.97
2022-11-23T16:23:01.342Z,71.97
2022-11-23T16:25:33.032Z,72.02
2022-11-23T16:28:14.260Z,71.96
2022-11-23T16:30:46.893Z,71.93
2022-11-23T16:33:17.590Z,71.93
2022-11-23T16:35:45.698Z,72.15
2022-11-23T16:38:13.453Z,72.23
2022-11-23T16:40:43.388Z,72.23
2022-11-23T16:43:12.356Z,72.38
2022-11-23T16:45:46.836Z,72.27
2022-11-23T16:48:38.581Z,72.27
2022-11-23T16:51:07.546Z,72.38
2022-11-23T16:54:00.360Z,72.53
2022-11-23T16:56:08.134Z,72.58
2022-11-23T16:58:36.031Z,72.71
2022-11-23T17:01:04.280Z,72.78
2022-11-23T17:03:33.483Z,72.92
2022-11-23T17:06:01.231Z,73.16
2022-11-23T17:08:28.783Z,73.35
2022-11-23T17:10:56.475Z,73.44
2022-11-23T17:13:28.456Z,73.51
2022-11-23T17:15:56.355Z,73.60
2022-11-23T17:18:24.010Z,73.65
2022-11-23T17:20:51.540Z,73.68
2022-11-23T17:23:19.157Z,73.78
2022-11-23T17:25:46.890Z,73.88
2022-11-23T17:28:22.234Z,73.93
2022-11-23T17:30:50.275Z,73.92
2022-11-23T17:33:17.903Z,73.93
2022-11-23T17:35:45.736Z,73.91
2022-11-23T17:38:16.995Z,73.77
2022-11-23T17:40:45.263Z,74.02
2022-11-23T17:43:14.854Z,73.73
2022-11-23T17:45:44.363Z,73.84
2022-11-23T17:48:14.878Z,73.63
2022-11-23T17:50:42.540Z,73.49
2022-11-23T17:53:10.940Z,73.49
2022-11-23T17:55:38.531Z,73.58
2022-11-23T17:58:06.737Z,73.50
2022-11-23T18:00:35.087Z,73.45
2022-11-23T18:03:02.843Z,73.43
2022-11-23T18:05:31.101Z,73.39
2022-11-23T18:07:58.838Z,73.34
2022-11-23T18:10:26.639Z,73.30
2022-11-23T18:12:54.306Z,73.39
2022-11-23T18:15:21.594Z,73.37
2022-11-23T18:17:49.174Z,73.36
2022-11-23T18:20:17.257Z,73.36
2022-11-23T18:22:45.177Z,73.41
2022-11-23T18:25:12.612Z,73.50
2022-11-23T18:27:40.237Z,73.66
2022-11-23T18:30:09.055Z,73.84
2022-11-23T18:32:37.124Z,73.95
2022-11-23T18:35:06.526Z,74.02
2022-11-23T18:37:33.982Z,74.06
2022-11-23T18:40:02.155Z,74.15
2022-11-23T18:42:30.064Z,74.25
2022-11-23T18:44:57.648Z,74.32
2022-11-23T18:47:25.306Z,74.39
2022-11-23T18:49:52.956Z,74.42
2022-11-23T18:52:20.721Z,74.41
2022-11-23T18:54:48.574Z,74.41
2022-11-23T18:57:16.529Z,74.50
2022-11-23T18:59:59.718Z,74.44
2022-11-23T19:02:13.967Z,74.61
2022-11-23T19:04:41.801Z,75.09
2022-11-23T19:07:09.305Z,75.36
2022-11-23T19:09:37.088Z,75.53
2022-11-23T19:12:06.358Z,75.33
2022-11-23T19:14:33.909Z,75.39
2022-11-23T19:17:02.223Z,75.47
2022-11-23T19:19:29.714Z,75.29
2022-11-23T19:21:57.665Z,75.04
2022-11-23T19:24:25.662Z,74.73
2022-11-23T19:26:53.313Z,74.35
2022-11-23T19:29:24.794Z,74.22
2022-11-23T19:31:52.410Z,74.16
2022-11-23T19:34:21.941Z,74.27
2022-11-23T19:36:49.495Z,74.29
2022-11-23T19:39:17.050Z,74.15
2022-11-23T19:41:44.820Z,74.10
2022-11-23T19:44:12.388Z,74.05
2022-11-23T19:46:40.562Z,74.00
2022-11-23T19:49:08.546Z,73.92
2022-11-23T19:51:35.943Z,73.91
2022-11-23T19:54:05.531Z,73.96
2022-11-23T19:56:33.027Z,73.92
2022-11-23T19:59:01.535Z,73.92
2022-11-23T20:01:32.328Z,73.88
2022-11-23T20:04:08.222Z,73.82
2022-11-23T20:06:35.654Z,73.84
2022-11-23T20:09:06.925Z,73.86
2022-11-23T20:11:35.378Z,73.94
2022-11-23T20:14:03.543Z,74.06
2022-11-23T20:16:32.740Z,74.17
2022-11-23T20:19:04.538Z,74.25
2022-11-23T20:21:33.926Z,74.33
2022-11-23T20:24:13.388Z,74.31
2022-11-23T20:26:42.243Z,74.44
2022-11-23T20:29:10.360Z,74.65
2022-11-23T20:31:38.055Z,74.81
2022-11-23T20:34:08.112Z,74.94
2022-11-23T20:36:37.663Z,74.87
2022-11-23T20:39:09.570Z,75.06
2022-11-23T20:41:37.769Z,74.92
2022-11-23T20:44:13.054Z,75.07
2022-11-23T20:49:10.847Z,74.86
2022-11-23T20:51:38.455Z,74.89
2022-11-23T20:54:06.479Z,74.58
2022-11-23T20:56:34.817Z,74.48
2022-11-23T20:59:03.761Z,74.25
2022-11-23T21:01:32.013Z,74.29
2022-11-23T21:03:59.831Z,74.32
2022-11-23T21:06:28.060Z,74.28
2022-11-23T21:08:56.140Z,74.10
2022-11-23T21:11:45.311Z,73.94
2022-11-23T21:14:19.653Z,74.01
2022-11-23T21:16:57.637Z,74.05
2022-11-23T21:19:30.188Z,74.06
2022-11-23T21:22:01.248Z,74.17
2022-11-23T21:24:29.196Z,74.25
2022-11-23T21:26:57.112Z,74.35
2022-11-23T21:29:25.640Z,74.45
2022-11-23T21:31:53.686Z,74.63
2022-11-23T21:34:25.303Z,74.85
2022-11-23T21:36:54.649Z,75.00
2022-11-23T21:39:23.562Z,75.14
2022-11-23T21:41:53.649Z,75.23
2022-11-23T21:44:22.207Z,75.28
2022-11-23T21:46:50.300Z,75.32
2022-11-23T21:49:20.093Z,75.35
2022-11-23T21:51:48.321Z,75.43
2022-11-23T21:54:16.385Z,75.51
2022-11-23T21:56:45.964Z,75.63
2022-11-23T21:59:14.406Z,75.80
2022-11-23T22:01:42.573Z,76.06
2022-11-23T22:04:12.980Z,76.34
2022-11-23T22:06:41.655Z,76.50
2022-11-23T22:09:11.035Z,76.46
2022-11-23T22:11:42.426Z,76.54
2022-11-23T22:14:18.515Z,76.65
2022-11-23T22:16:53.241Z,76.57
2022-11-23T22:19:20.737Z,76.40
2022-11-23T22:21:48.554Z,76.10
2022-11-23T22:24:19.079Z,76.05
2022-11-23T22:26:48.353Z,75.83
2022-11-23T22:29:16.303Z,75.40
2022-11-23T22:31:44.168Z,75.13
2022-11-23T22:34:13.594Z,75.13
2022-11-23T22:36:41.499Z,75.05
2022-11-23T22:39:09.525Z,74.97
2022-11-23T22:41:38.363Z,74.98
2022-11-23T22:44:09.081Z,75.03
2022-11-23T22:46:37.686Z,75.08
2022-11-23T22:49:05.806Z,75.07
2022-11-23T22:51:33.737Z,74.96
2022-11-23T22:54:02.266Z,74.98
2022-11-23T22:56:30.834Z,75.04
2022-11-23T22:58:59.129Z,75.12
2022-11-23T23:01:30.010Z,75.11
2022-11-23T23:04:00.867Z,75.15
2022-11-23T23:06:33.882Z,75.21
2022-11-23T23:09:03.671Z,75.23
2022-11-23T23:11:32.561Z,75.25
2022-11-23T23:14:00.761Z,75.26
2022-11-23T23:16:29.461Z,75.27
2022-11-23T23:18:58.677Z,75.32
2022-11-23T23:21:27.742Z,75.34
2022-11-23T23:23:58.304Z,75.43
2022-11-23T23:26:28.070Z,75.51
2022-11-23T23:28:58.416Z,75.66
2022-11-23T23:31:27.861Z,75.88
2022-11-23T23:33:56.456Z,75.93
2022-11-23T23:36:24.504Z,76.08
2022-11-23T23:38:52.168Z,76.03
2022-11-23T23:41:20.268Z,76.15
2022-11-23T23:43:48.302Z,76.07
2022-11-23T23:46:16.663Z,76.10
2022-11-23T23:48:44.879Z,75.79
2022-11-23T23:51:18.952Z,75.57
2022-11-23T23:53:47.042Z,75.52
2022-11-23T23:56:19.388Z,75.35
2022-11-23T23:58:47.024Z,75.16
